Dam Neck, VA (23461)

11:06 PM EST on March 03, 2015 (GMT -0500)
KVAVIRGI82 | Change Station
CLOSE
Current Station
Personal Weather Station
Location: Virginia Beach, VA
Elevation: 13 ft
Nearby Weather Stations

Elev 13 ft 36.79 °N, 75.96 °W | Updated 7 minutes ago

Fog
Fog
47.7 °F
Feels Like 45 °F
N
6.8
Wind Variable Wind from SW

Today
High -- | Low -- °F
--% Chance of Precip.
Yesterday
High -- | Low -- °F
Precip. -- in
6:32 AM 5:59 PM
Waxing Gibbous, 98% visible
Pressure 30.03 in
Visibility 5.0 miles
Clouds Scattered Clouds 800 ft
Overcast 1300 ft
Windchill 45 °F
Dew Point 45 °F
Humidity 91%
Rainfall 0.00 in
Snow Depth Not available.
UV 0 out of 12
Pollen 7.00 out of 12
Air Quality Not available.
Flu Activity Not available.
METAR KNTU 040356Z 21013G21KT 5SM -DZ SCT008 OVC013 09/06 A3002 RMK AO2 CIG 008 RWY 05R SLP168 P0000 T00890056

More Conditions Fewer Conditions

Pressure 30.03 in
Visibility 5.0 miles
Clouds Scattered Clouds 800 ft
Overcast 1300 ft
Windchill 45 °F
Dew Point 45 °F
Humidity 91%
Rainfall 0.00 in
Snow Depth Not available.
UV 0 out of 12
Pollen 7.00 out of 12
Air Quality Not available.
Flu Activity Not available.
METAR KNTU 040356Z 21013G21KT 5SM -DZ SCT008 OVC013 09/06 A3002 RMK AO2 CIG 008 RWY 05R SLP168 P0000 T00890056

More Conditions Fewer Conditions

10-Day Weather Forecast

Almanac

Astronomy

Mar. 03, 2015 Rise Set
Actual Time
Civil Twilight
Nautical Twilight
Astronomical Twilight
Moon
Length of Visible Light
Length of Day
Tomorrow will be .
, % of the Moon is Illuminated

Today's Extremes

State Highs State Lows

Community

WunderPhotos

Upload Photos

1,802,381 photos uploaded!

WunderBlogs® & News

Nearby

Air Quality

  Air Quality AQ Index Pollutant
Not available.

Snow Depth

Station Depth Elevation

Earthquake Activity

City Distance Mag. Time & Date
Minimum magnitude displayed is 2.5.

Coastal Water Temperatures

Place Temperature

Nearby Weather Stations